createdAt,value
2022-07-31T01:11:43.200Z,1000.31
2022-07-31T01:12:36.988Z,1000.28
2022-07-31T01:21:36.886Z,1000.20
2022-07-31T01:25:36.846Z,1000.16
2022-07-31T01:40:36.696Z,1000.08
2022-07-31T01:41:36.679Z,1000.06
2022-07-31T02:07:36.407Z,1000.22
2022-07-31T02:25:36.224Z,1000.26
2022-07-31T02:27:54.419Z,1000.22
2022-07-31T02:41:36.052Z,1000.09
2022-07-31T02:44:36.017Z,1000.10
2022-07-31T02:47:35.989Z,1000.14
2022-07-31T02:49:35.967Z,1000.10
2022-07-31T02:59:35.863Z,1000.08
2022-07-31T03:00:35.886Z,1000.11
2022-07-31T03:03:35.816Z,1000.06
2022-07-31T03:09:35.757Z,1000.01
2022-07-31T03:13:35.717Z,1000.03
2022-07-31T03:14:35.718Z,1000.06
2022-07-31T03:15:35.690Z,1000.03
2022-07-31T03:16:35.681Z,1000.05
2022-07-31T03:17:38.072Z,1000.04
2022-07-31T03:18:35.660Z,1000.08
2022-07-31T03:19:35.649Z,1000.05
2022-07-31T03:20:35.639Z,1000.06
2022-07-31T03:21:35.629Z,1000.06
2022-07-31T03:22:35.620Z,1000.05
2022-07-31T03:23:35.606Z,1000.06
2022-07-31T03:24:35.597Z,1000.08
2022-07-31T03:25:35.799Z,1000.04
2022-07-31T03:26:35.577Z,1000.03
2022-07-31T03:27:35.568Z,1000.04
2022-07-31T03:28:35.676Z,1000.03
2022-07-31T03:29:42.673Z,1000.01
2022-07-31T03:30:35.534Z,1000.06
2022-07-31T03:31:35.469Z,1000.04
2022-07-31T03:32:35.469Z,1000.01
2022-07-31T03:33:35.452Z,1000.03
2022-07-31T03:34:35.440Z,999.98
2022-07-31T03:35:42.181Z,1000.01
2022-07-31T03:36:36.455Z,999.95
2022-07-31T03:37:35.424Z,999.98
2022-07-31T03:38:40.634Z,999.98
2022-07-31T03:39:36.425Z,999.99
2022-07-31T03:40:35.376Z,999.96
2022-07-31T03:41:35.369Z,999.94
2022-07-31T03:42:35.353Z,999.95
2022-07-31T03:43:44.073Z,999.97
2022-07-31T03:44:36.371Z,999.94
2022-07-31T03:45:35.330Z,999.98
2022-07-31T03:46:35.316Z,999.95
2022-07-31T03:47:35.308Z,999.96
2022-07-31T03:48:35.289Z,999.95
2022-07-31T03:49:35.415Z,999.94
2022-07-31T03:50:35.276Z,999.96
2022-07-31T03:51:35.259Z,999.94
2022-07-31T03:52:35.253Z,999.96
2022-07-31T03:53:35.239Z,999.99
2022-07-31T03:54:35.436Z,1000.02
2022-07-31T03:55:35.235Z,1000.04
2022-07-31T03:56:35.208Z,1000.03
2022-07-31T03:57:35.202Z,1000.03
2022-07-31T03:58:36.688Z,1000.05
2022-07-31T03:59:40.591Z,1000.06
2022-07-31T04:00:36.257Z,1000.03
2022-07-31T04:01:58.397Z,1000.10
2022-07-31T04:02:36.220Z,1000.02
2022-07-31T04:03:35.140Z,1000.04
2022-07-31T04:04:35.128Z,999.99
2022-07-31T04:06:35.136Z,999.97
2022-07-31T04:07:35.090Z,999.98
2022-07-31T04:08:35.078Z,1000.02
2022-07-31T04:09:35.074Z,999.98
2022-07-31T04:12:35.043Z,1000.00
2022-07-31T04:13:35.042Z,1000.01
2022-07-31T04:14:35.022Z,1000.03
2022-07-31T04:15:35.012Z,1000.02
2022-07-31T04:16:35.005Z,1000.03
2022-07-31T04:17:34.985Z,1000.02
2022-07-31T04:18:35.133Z,1000.05
2022-07-31T04:19:34.966Z,1000.00
2022-07-31T04:20:34.957Z,999.96
2022-07-31T04:21:34.957Z,999.95
2022-07-31T04:22:34.933Z,999.96
2022-07-31T04:23:34.925Z,999.91
2022-07-31T04:24:34.912Z,999.91
2022-07-31T04:25:34.902Z,999.91
2022-07-31T04:26:34.891Z,999.94
2022-07-31T04:27:48.059Z,999.92
2022-07-31T04:28:35.915Z,999.92
2022-07-31T04:29:34.868Z,999.96
2022-07-31T04:30:34.847Z,999.92
2022-07-31T04:31:34.837Z,999.98
2022-07-31T04:32:34.833Z,999.96
2022-07-31T04:33:34.816Z,999.98
2022-07-31T04:34:34.808Z,999.98
2022-07-31T04:35:34.799Z,1000.01
2022-07-31T04:36:34.799Z,1000.02
2022-07-31T04:37:34.799Z,1000.03
2022-07-31T04:38:34.769Z,1000.02
2022-07-31T04:39:34.755Z,1000.02
2022-07-31T04:40:34.750Z,999.99
2022-07-31T04:41:34.741Z,999.96
2022-07-31T04:42:34.737Z,999.96
2022-07-31T04:43:34.714Z,999.97
2022-07-31T04:44:34.704Z,999.98
2022-07-31T04:45:34.692Z,999.96
2022-07-31T04:46:34.684Z,1000.03
2022-07-31T04:47:34.674Z,1000.00
2022-07-31T04:48:34.669Z,999.93
2022-07-31T04:49:34.772Z,999.94
2022-07-31T04:50:34.638Z,999.95
2022-07-31T04:51:34.631Z,999.96
2022-07-31T04:52:34.724Z,999.98
2022-07-31T04:53:34.809Z,999.96
2022-07-31T04:54:34.600Z,999.98
2022-07-31T04:55:34.589Z,1000.00
2022-07-31T04:56:34.576Z,1000.00
2022-07-31T04:57:34.576Z,1000.01
2022-07-31T04:58:34.561Z,1000.00
2022-07-31T04:59:59.150Z,1000.04
2022-07-31T05:00:35.573Z,999.98
2022-07-31T05:01:34.590Z,999.94
2022-07-31T05:02:34.517Z,999.92
2022-07-31T05:03:34.505Z,999.92
2022-07-31T05:04:34.496Z,999.89
2022-07-31T05:05:34.665Z,999.88
2022-07-31T05:06:34.473Z,999.87
2022-07-31T05:07:34.471Z,999.87
2022-07-31T05:08:34.451Z,999.86
2022-07-31T05:09:34.441Z,999.83
2022-07-31T05:10:34.429Z,999.84
2022-07-31T05:11:34.417Z,999.86
2022-07-31T05:12:34.407Z,999.88
2022-07-31T05:13:34.398Z,999.81
2022-07-31T05:14:34.593Z,999.82
2022-07-31T05:15:34.377Z,999.80
2022-07-31T05:16:34.378Z,999.83
2022-07-31T05:17:34.360Z,999.81
2022-07-31T05:18:34.344Z,999.80
2022-07-31T05:19:34.540Z,999.84
2022-07-31T05:20:34.337Z,999.86
2022-07-31T05:21:34.311Z,999.77
2022-07-31T05:22:35.548Z,999.75
2022-07-31T05:23:34.296Z,999.81
2022-07-31T05:24:34.464Z,999.81
2022-07-31T05:25:34.273Z,999.82
2022-07-31T05:26:34.284Z,999.87
2022-07-31T05:27:38.952Z,999.93
2022-07-31T05:28:34.238Z,999.86
2022-07-31T05:29:34.244Z,999.87
2022-07-31T05:30:34.229Z,999.90
2022-07-31T05:31:34.215Z,999.86
2022-07-31T05:32:34.205Z,999.83
2022-07-31T05:33:34.191Z,999.88
2022-07-31T05:34:34.180Z,999.87
2022-07-31T05:35:34.167Z,999.85
2022-07-31T05:36:34.157Z,999.81
2022-07-31T05:37:34.147Z,999.81
2022-07-31T05:38:34.140Z,999.80
2022-07-31T05:39:34.123Z,999.80
2022-07-31T05:40:34.123Z,999.82
2022-07-31T05:41:34.122Z,999.82
2022-07-31T05:42:34.091Z,999.83
2022-07-31T05:44:08.787Z,999.88
2022-07-31T05:45:08.764Z,999.88
2022-07-31T05:46:08.761Z,999.91
2022-07-31T05:47:08.741Z,999.89
2022-07-31T05:48:08.732Z,999.91
2022-07-31T05:49:08.795Z,999.87
2022-07-31T05:50:08.709Z,999.92
2022-07-31T05:51:08.697Z,999.89
2022-07-31T05:52:08.696Z,999.88
2022-07-31T05:53:08.678Z,999.83
2022-07-31T05:54:08.662Z,999.85
2022-07-31T05:55:08.859Z,999.83
2022-07-31T05:56:08.651Z,999.81
2022-07-31T05:57:33.615Z,999.81
2022-07-31T05:58:13.578Z,999.81
2022-07-31T05:59:09.662Z,999.82
2022-07-31T06:00:08.609Z,999.82
2022-07-31T06:01:08.630Z,999.84
2022-07-31T06:02:08.863Z,999.83
2022-07-31T06:03:08.571Z,999.83
2022-07-31T06:04:08.559Z,999.77
2022-07-31T06:05:14.562Z,999.78
2022-07-31T06:06:08.538Z,999.78
2022-07-31T06:07:08.532Z,999.82
2022-07-31T06:08:08.720Z,999.79
2022-07-31T06:09:08.507Z,999.72
2022-07-31T06:10:08.497Z,999.76
2022-07-31T06:11:08.485Z,999.75
2022-07-31T06:12:08.475Z,999.76
2022-07-31T06:13:08.471Z,999.73
2022-07-31T06:14:08.457Z,999.72
2022-07-31T06:15:08.456Z,999.73
2022-07-31T06:16:08.433Z,999.74
2022-07-31T06:17:08.423Z,999.77
2022-07-31T06:18:08.417Z,999.74
2022-07-31T06:19:08.409Z,999.76
2022-07-31T06:20:14.409Z,999.74
2022-07-31T06:21:08.382Z,999.67
2022-07-31T06:22:08.918Z,999.72
2022-07-31T06:23:14.564Z,999.73
2022-07-31T06:24:09.399Z,999.74
2022-07-31T06:25:08.345Z,999.73
2022-07-31T06:26:08.327Z,999.72
2022-07-31T06:27:08.698Z,999.68
2022-07-31T06:28:10.764Z,999.72
2022-07-31T06:29:08.301Z,999.72
2022-07-31T06:30:08.293Z,999.69
2022-07-31T06:31:08.277Z,999.74
2022-07-31T06:32:08.267Z,999.71
2022-07-31T06:33:08.698Z,999.71
2022-07-31T06:34:09.485Z,999.74
2022-07-31T06:35:08.235Z,999.75
2022-07-31T06:36:08.227Z,999.72
2022-07-31T06:37:08.214Z,999.75
2022-07-31T06:38:08.217Z,999.73
2022-07-31T06:39:14.208Z,999.77
2022-07-31T06:40:08.190Z,999.80
2022-07-31T06:41:08.195Z,999.83
2022-07-31T06:42:08.168Z,999.81
2022-07-31T06:43:08.156Z,999.81
2022-07-31T06:44:08.141Z,999.80
2022-07-31T06:45:08.137Z,999.81
2022-07-31T06:46:08.120Z,999.78
2022-07-31T06:47:13.988Z,999.82
2022-07-31T06:48:09.132Z,999.85
2022-07-31T06:49:09.007Z,999.87
2022-07-31T06:50:08.282Z,999.84
2022-07-31T06:51:29.890Z,999.87
2022-07-31T06:52:09.099Z,999.85
2022-07-31T06:53:08.050Z,999.85
2022-07-31T06:54:08.036Z,999.90
2022-07-31T06:55:10.085Z,999.91
2022-07-31T06:56:08.020Z,999.90
2022-07-31T06:57:08.011Z,999.93
2022-07-31T06:58:08.006Z,999.95
2022-07-31T06:59:07.988Z,999.99
2022-07-31T07:00:19.839Z,999.97
2022-07-31T07:01:09.132Z,999.98
2022-07-31T07:02:08.500Z,1000.02
2022-07-31T07:03:07.960Z,999.99
2022-07-31T07:04:07.942Z,999.99
2022-07-31T07:05:13.934Z,1000.00
2022-07-31T07:06:07.920Z,999.97
2022-07-31T07:07:07.908Z,999.99
2022-07-31T07:08:07.897Z,1000.01
2022-07-31T07:09:07.886Z,1000.03
2022-07-31T07:10:07.879Z,1000.04
2022-07-31T07:11:11.984Z,1000.07
2022-07-31T07:12:08.262Z,1000.05
2022-07-31T07:13:15.850Z,1000.03
2022-07-31T07:14:07.834Z,1000.05
2022-07-31T07:15:07.829Z,1000.04
2022-07-31T07:16:07.809Z,1000.07
2022-07-31T07:17:07.805Z,1000.10
2022-07-31T07:18:07.789Z,1000.08
2022-07-31T07:19:38.529Z,1000.11
2022-07-31T07:20:38.512Z,1000.05
2022-07-31T07:21:38.498Z,1000.00
2022-07-31T07:22:38.493Z,1000.02
2022-07-31T07:23:38.541Z,999.98
2022-07-31T07:24:38.464Z,1000.02
2022-07-31T07:25:38.459Z,999.96
2022-07-31T07:26:38.450Z,999.96
2022-07-31T07:27:38.432Z,999.96
2022-07-31T07:28:38.426Z,999.93
2022-07-31T07:29:38.418Z,999.98
2022-07-31T07:30:38.406Z,1000.01
2022-07-31T07:31:38.395Z,1000.00
2022-07-31T07:32:44.394Z,1000.00
2022-07-31T07:33:44.395Z,1000.05
2022-07-31T07:34:38.366Z,999.99
2022-07-31T07:35:38.350Z,1000.00
2022-07-31T07:36:44.346Z,999.97
2022-07-31T07:37:38.920Z,999.97
2022-07-31T07:38:38.321Z,1000.00
2022-07-31T07:39:38.314Z,999.95
2022-07-31T07:40:38.297Z,999.93
2022-07-31T07:41:38.291Z,999.94
2022-07-31T07:42:38.278Z,999.93
2022-07-31T07:43:38.266Z,999.91
2022-07-31T07:44:38.257Z,999.94
2022-07-31T07:45:38.248Z,999.90
2022-07-31T07:46:38.236Z,999.85
2022-07-31T07:48:05.538Z,999.82
2022-07-31T07:48:39.347Z,999.80
2022-07-31T07:49:38.204Z,999.81
2022-07-31T07:50:38.196Z,999.82
2022-07-31T07:51:38.187Z,999.82
2022-07-31T07:52:43.635Z,999.78
2022-07-31T07:53:38.229Z,999.79
2022-07-31T07:54:38.159Z,999.80
2022-07-31T07:55:38.144Z,999.76
2022-07-31T07:56:38.150Z,999.74
2022-07-31T07:57:38.130Z,999.74
2022-07-31T07:58:38.320Z,999.76
2022-07-31T07:59:38.100Z,999.80
2022-07-31T08:00:38.092Z,999.76
2022-07-31T08:01:38.324Z,999.73
2022-07-31T08:02:38.087Z,999.76
2022-07-31T08:03:50.829Z,999.73
2022-07-31T08:04:39.086Z,999.76
2022-07-31T08:05:38.042Z,999.70
2022-07-31T08:06:38.032Z,999.73
2022-07-31T08:07:42.714Z,999.71
2022-07-31T08:08:38.016Z,999.69
2022-07-31T08:09:38.001Z,999.64
2022-07-31T08:10:37.990Z,999.68
2022-07-31T08:11:37.985Z,999.67
2022-07-31T08:12:37.970Z,999.66
2022-07-31T08:13:38.134Z,999.64
2022-07-31T08:14:37.952Z,999.64
2022-07-31T08:15:37.939Z,999.63
2022-07-31T08:16:37.928Z,999.61
2022-07-31T08:17:37.919Z,999.57
2022-07-31T08:18:37.906Z,999.63
2022-07-31T08:19:37.904Z,999.64
2022-07-31T08:20:37.893Z,999.63
2022-07-31T08:21:37.881Z,999.62
2022-07-31T08:22:37.872Z,999.65
2022-07-31T08:23:43.870Z,999.60
2022-07-31T08:24:37.849Z,999.59
2022-07-31T08:25:37.844Z,999.62
2022-07-31T08:26:37.839Z,999.58
2022-07-31T08:27:40.503Z,999.59
2022-07-31T08:28:37.808Z,999.61
2022-07-31T08:29:37.905Z,999.63
2022-07-31T08:30:37.792Z,999.61
2022-07-31T08:31:37.784Z,999.59
2022-07-31T08:32:37.781Z,999.59
2022-07-31T08:33:37.762Z,999.60
2022-07-31T08:34:41.780Z,999.64
2022-07-31T08:35:37.742Z,999.65
2022-07-31T08:36:37.931Z,999.62
2022-07-31T08:37:51.716Z,999.62
2022-07-31T08:38:38.749Z,999.66
2022-07-31T08:39:43.710Z,999.67
2022-07-31T08:40:43.841Z,999.64
2022-07-31T08:41:37.685Z,999.56
2022-07-31T08:42:37.675Z,999.60
2022-07-31T08:44:00.636Z,999.62
2022-07-31T08:44:38.896Z,999.62
2022-07-31T08:45:43.658Z,999.63
2022-07-31T08:46:37.635Z,999.60
2022-07-31T08:48:51.209Z,999.65
2022-07-31T08:49:51.112Z,999.58
2022-07-31T08:50:53.909Z,999.60
2022-07-31T08:51:52.863Z,999.60
2022-07-31T08:52:51.077Z,999.56
2022-07-31T08:53:51.273Z,999.60
2022-07-31T08:54:51.058Z,999.58
2022-07-31T08:55:55.420Z,999.57
2022-07-31T08:56:52.077Z,999.54
2022-07-31T08:57:51.033Z,999.53
2022-07-31T08:58:51.019Z,999.53
2022-07-31T08:59:57.019Z,999.52
2022-07-31T09:00:51.287Z,999.51
2022-07-31T09:01:51.414Z,999.52
2022-07-31T09:02:51.184Z,999.47
2022-07-31T09:03:50.976Z,999.48
2022-07-31T09:04:52.741Z,999.51
2022-07-31T09:05:50.959Z,999.41
2022-07-31T09:06:50.956Z,999.44
2022-07-31T09:07:51.144Z,999.41
2022-07-31T09:08:50.932Z,999.44
2022-07-31T09:09:52.393Z,999.38
2022-07-31T09:10:50.915Z,999.41
2022-07-31T09:11:56.914Z,999.42
2022-07-31T09:12:50.897Z,999.32
2022-07-31T09:14:01.926Z,999.34
2022-07-31T09:14:51.918Z,999.33
2022-07-31T09:15:50.878Z,999.35
2022-07-31T09:16:50.878Z,999.35
2022-07-31T09:17:53.777Z,999.35
2022-07-31T09:18:51.053Z,999.34
2022-07-31T09:19:52.371Z,999.32
2022-07-31T09:20:56.850Z,999.35
2022-07-31T09:21:51.027Z,999.30
2022-07-31T09:22:56.818Z,999.33
2022-07-31T09:23:51.025Z,999.30
2022-07-31T09:24:50.813Z,999.25
2022-07-31T09:25:56.814Z,999.28
2022-07-31T09:26:50.778Z,999.26
2022-07-31T09:27:50.975Z,999.28
2022-07-31T09:28:50.756Z,999.24
2022-07-31T09:29:50.750Z,999.27
2022-07-31T09:30:56.249Z,999.29
2022-07-31T09:31:51.787Z,999.27
2022-07-31T09:32:50.725Z,999.26
2022-07-31T09:33:50.923Z,999.25
2022-07-31T09:34:50.727Z,999.16
2022-07-31T09:35:50.702Z,999.20
2022-07-31T09:36:50.707Z,999.20
2022-07-31T09:37:50.686Z,999.22
2022-07-31T09:38:50.673Z,999.22
2022-07-31T09:39:52.423Z,999.18
2022-07-31T09:40:57.872Z,999.20
2022-07-31T09:42:01.786Z,999.17
2022-07-31T09:42:55.335Z,999.20
2022-07-31T09:43:52.690Z,999.20
2022-07-31T09:44:50.833Z,999.26
2022-07-31T09:45:50.619Z,999.19
2022-07-31T09:46:50.618Z,999.23
2022-07-31T09:47:52.665Z,999.20
2022-07-31T09:48:50.673Z,999.21
2022-07-31T09:50:21.341Z,999.21
2022-07-31T09:51:21.307Z,999.24
2022-07-31T09:52:21.299Z,999.24
2022-07-31T09:53:21.292Z,999.21
2022-07-31T09:54:21.279Z,999.13
2022-07-31T09:55:21.272Z,999.24
2022-07-31T09:56:21.262Z,999.16
2022-07-31T09:57:21.256Z,999.22
2022-07-31T09:58:21.246Z,999.20
2022-07-31T09:59:21.242Z,999.22
2022-07-31T10:00:21.229Z,999.25
2022-07-31T10:01:21.299Z,999.31
2022-07-31T10:02:21.211Z,999.28
2022-07-31T10:03:21.212Z,999.24
2022-07-31T10:04:21.195Z,999.29
2022-07-31T10:05:21.192Z,999.22
2022-07-31T10:06:21.181Z,999.24
2022-07-31T10:07:31.910Z,999.25
2022-07-31T10:08:59.867Z,999.14
2022-07-31T10:10:02.106Z,999.17
2022-07-31T10:10:59.841Z,999.16
2022-07-31T10:12:00.043Z,999.17
2022-07-31T10:13:01.065Z,999.13
2022-07-31T10:13:59.818Z,999.16
2022-07-31T10:14:59.810Z,999.22
2022-07-31T10:16:00.008Z,999.27
2022-07-31T10:16:59.794Z,999.26
2022-07-31T10:17:59.785Z,999.19
2022-07-31T10:18:59.980Z,999.24
2022-07-31T10:19:59.770Z,999.22
2022-07-31T10:20:59.768Z,999.23
2022-07-31T10:21:59.771Z,999.15
2022-07-31T10:23:01.751Z,999.10
2022-07-31T10:23:59.741Z,999.19
2022-07-31T10:24:59.953Z,999.16
2022-07-31T10:26:00.132Z,999.20
2022-07-31T10:27:01.695Z,999.15
2022-07-31T10:27:59.713Z,999.09
2022-07-31T10:29:42.455Z,998.98
2022-07-31T10:30:48.453Z,999.00
2022-07-31T10:31:42.428Z,999.01
2022-07-31T10:32:48.639Z,999.12
2022-07-31T10:33:44.560Z,999.12
2022-07-31T10:34:42.811Z,999.02
2022-07-31T10:35:42.399Z,999.06
2022-07-31T10:36:42.391Z,999.03
2022-07-31T10:37:42.382Z,999.02
2022-07-31T10:38:42.373Z,999.05
2022-07-31T10:39:42.366Z,998.94
2022-07-31T10:40:48.572Z,998.92
2022-07-31T10:41:42.358Z,998.87
2022-07-31T10:43:59.749Z,998.86
2022-07-31T10:44:59.838Z,998.83
2022-07-31T10:46:40.419Z,998.85
2022-07-31T10:48:13.458Z,998.85
2022-07-31T10:49:13.482Z,998.77
2022-07-31T10:50:13.236Z,998.76
2022-07-31T10:51:13.221Z,998.79
2022-07-31T10:52:13.421Z,998.74
2022-07-31T10:53:19.213Z,998.76
2022-07-31T10:54:13.199Z,998.73
2022-07-31T10:55:13.413Z,998.67
2022-07-31T10:56:13.187Z,998.63
2022-07-31T10:57:13.181Z,998.65
2022-07-31T10:58:13.370Z,998.65
2022-07-31T10:59:13.165Z,998.60
2022-07-31T11:00:13.155Z,998.68
2022-07-31T11:01:17.392Z,998.61
2022-07-31T11:02:15.490Z,998.61
2022-07-31T11:03:13.333Z,998.58
2022-07-31T11:04:14.768Z,998.61
2022-07-31T11:05:21.333Z,998.54
2022-07-31T11:06:13.116Z,998.54
2022-07-31T11:07:19.115Z,998.52
2022-07-31T11:08:14.140Z,998.50
2022-07-31T11:09:13.094Z,998.56
2022-07-31T11:10:13.100Z,998.52
2022-07-31T11:11:13.283Z,998.44
2022-07-31T11:12:13.090Z,998.45
2022-07-31T11:13:13.281Z,998.46
2022-07-31T11:14:13.062Z,998.50
2022-07-31T11:15:19.068Z,998.55
2022-07-31T11:16:15.310Z,998.47
2022-07-31T11:17:13.047Z,998.54
2022-07-31T11:18:20.992Z,998.55
2022-07-31T11:19:14.072Z,998.52
2022-07-31T11:20:13.024Z,998.46
2022-07-31T11:21:37.115Z,998.48
2022-07-31T11:22:31.698Z,998.43
2022-07-31T11:23:14.446Z,998.51
2022-07-31T11:24:13.004Z,998.46
2022-07-31T11:25:12.999Z,998.44
2022-07-31T11:26:12.989Z,998.40
2022-07-31T11:27:13.386Z,998.43
2022-07-31T11:28:12.974Z,998.49
2022-07-31T11:30:01.281Z,998.69
2022-07-31T11:30:13.998Z,998.60
2022-07-31T11:31:18.966Z,998.64
2022-07-31T11:32:13.146Z,998.51
2022-07-31T11:33:19.151Z,998.44
2022-07-31T11:34:12.938Z,998.55
2022-07-31T11:35:13.137Z,998.58
2022-07-31T11:36:18.933Z,998.91
2022-07-31T11:37:14.356Z,998.90
2022-07-31T11:38:12.914Z,998.86
2022-07-31T11:39:18.916Z,998.81
2022-07-31T11:40:13.932Z,998.80
2022-07-31T11:41:14.306Z,998.82
2022-07-31T11:42:59.797Z,998.70
2022-07-31T11:43:48.598Z,998.69
2022-07-31T11:44:47.558Z,998.69
2022-07-31T11:45:48.078Z,998.58
2022-07-31T11:46:47.544Z,998.59
2022-07-31T11:48:09.864Z,998.62
2022-07-31T11:48:48.615Z,998.51
2022-07-31T11:49:48.977Z,998.46
2022-07-31T11:51:32.276Z,998.41
2022-07-31T11:52:39.021Z,998.35
2022-07-31T11:53:33.287Z,998.38
2022-07-31T11:54:38.469Z,998.39
2022-07-31T11:55:32.850Z,998.39
2022-07-31T11:56:32.233Z,998.35
2022-07-31T11:57:51.152Z,998.29
2022-07-31T11:58:33.258Z,998.28
2022-07-31T12:00:26.769Z,998.26
2022-07-31T12:01:20.142Z,998.23
2022-07-31T12:02:19.155Z,998.27
2022-07-31T12:03:20.949Z,998.19
2022-07-31T12:04:25.095Z,998.17
2022-07-31T12:06:03.588Z,998.16
2022-07-31T12:07:03.795Z,998.16
2022-07-31T12:07:57.554Z,998.12
2022-07-31T12:08:57.754Z,998.13
2022-07-31T12:10:32.457Z,998.16
2022-07-31T12:11:34.489Z,998.19
2022-07-31T12:12:32.432Z,998.22
2022-07-31T12:13:32.627Z,998.27
2022-07-31T12:14:32.426Z,998.24
2022-07-31T12:15:32.411Z,998.21
2022-07-31T12:16:34.615Z,998.22
2022-07-31T12:18:03.152Z,998.25
2022-07-31T12:19:09.165Z,998.24
2022-07-31T12:20:03.188Z,998.20
2022-07-31T12:21:05.379Z,998.35
2022-07-31T12:22:05.119Z,998.33
2022-07-31T12:23:03.113Z,998.30
2022-07-31T12:24:03.116Z,998.32
2022-07-31T12:25:09.313Z,998.33
2022-07-31T12:26:03.304Z,998.27
2022-07-31T12:27:05.394Z,998.33
2022-07-31T12:28:03.090Z,998.30
2022-07-31T12:29:03.480Z,998.33
2022-07-31T12:30:05.335Z,998.29
2022-07-31T12:31:57.894Z,998.27
2022-07-31T12:33:04.096Z,998.27
2022-07-31T12:33:57.875Z,998.26
2022-07-31T12:34:58.114Z,998.21
2022-07-31T12:35:59.867Z,998.20
2022-07-31T12:36:57.856Z,998.11
2022-07-31T12:37:58.261Z,998.16
2022-07-31T12:39:47.756Z,998.18
2022-07-31T12:40:37.781Z,998.13
2022-07-31T12:41:42.752Z,998.17
2022-07-31T12:42:41.591Z,998.14
2022-07-31T12:43:38.523Z,998.11
2022-07-31T12:45:31.294Z,998.07
2022-07-31T12:46:31.279Z,998.02
2022-07-31T12:47:31.267Z,997.98
2022-07-31T12:48:36.281Z,997.99
2022-07-31T12:49:33.350Z,998.04
2022-07-31T12:51:06.152Z,998.00
2022-07-31T12:52:05.931Z,997.96
2022-07-31T12:53:07.986Z,998.01
2022-07-31T12:54:12.133Z,997.96
2022-07-31T12:55:05.928Z,997.94
2022-07-31T12:56:11.933Z,997.97
2022-07-31T12:57:07.479Z,998.00
2022-07-31T12:58:06.104Z,998.00
2022-07-31T12:59:05.901Z,998.02
2022-07-31T13:00:11.907Z,997.92
2022-07-31T13:01:05.892Z,997.89
2022-07-31T13:02:06.020Z,997.88
2022-07-31T13:03:05.886Z,997.84
2022-07-31T13:04:05.874Z,997.87
2022-07-31T13:05:05.872Z,997.89
2022-07-31T13:06:11.879Z,997.79
2022-07-31T13:07:11.863Z,997.80
2022-07-31T13:08:05.860Z,997.79
2022-07-31T13:09:08.101Z,997.80
2022-07-31T13:10:19.803Z,997.80
2022-07-31T13:11:07.838Z,997.80
2022-07-31T13:12:05.847Z,997.80
2022-07-31T13:13:08.087Z,997.84
2022-07-31T13:14:05.827Z,997.78
2022-07-31T13:16:28.809Z,997.81
2022-07-31T13:17:28.777Z,997.82
2022-07-31T13:18:28.976Z,997.80
2022-07-31T13:19:30.814Z,997.79
2022-07-31T13:20:28.957Z,997.80
2022-07-31T13:21:28.755Z,997.83
2022-07-31T13:22:28.750Z,997.79
2022-07-31T13:23:28.949Z,997.74
2022-07-31T13:24:34.741Z,997.72
2022-07-31T13:25:28.730Z,997.75
2022-07-31T13:26:29.132Z,997.74
2022-07-31T13:27:29.760Z,997.70
2022-07-31T13:28:28.717Z,997.76
2022-07-31T13:29:28.711Z,997.67
2022-07-31T13:30:28.712Z,997.74
2022-07-31T13:31:28.701Z,997.67
2022-07-31T13:32:28.697Z,997.68
2022-07-31T13:33:28.698Z,997.69
2022-07-31T13:34:34.897Z,997.71
2022-07-31T13:35:29.323Z,997.70
2022-07-31T13:36:31.708Z,997.73
2022-07-31T13:37:28.673Z,997.69
2022-07-31T13:38:28.668Z,997.75
2022-07-31T13:39:28.927Z,997.78
2022-07-31T13:40:28.678Z,997.77
2022-07-31T13:41:28.657Z,997.73
2022-07-31T13:42:29.948Z,997.76
2022-07-31T13:43:30.698Z,997.79
2022-07-31T13:44:28.905Z,997.71
2022-07-31T13:45:28.840Z,997.70
2022-07-31T13:46:32.890Z,997.69
2022-07-31T13:47:28.624Z,997.69
2022-07-31T13:48:29.654Z,997.63
2022-07-31T13:49:28.684Z,997.69
2022-07-31T13:50:28.614Z,997.66
2022-07-31T13:51:29.189Z,997.64
2022-07-31T13:52:28.604Z,997.63
2022-07-31T13:53:28.591Z,997.62
2022-07-31T13:54:28.791Z,997.58
2022-07-31T13:55:28.791Z,997.61
2022-07-31T13:56:36.781Z,997.68
2022-07-31T13:57:29.613Z,997.64
2022-07-31T13:58:30.574Z,997.63
2022-07-31T13:59:34.590Z,997.61
2022-07-31T14:00:30.657Z,997.65
2022-07-31T14:02:02.999Z,997.65
2022-07-31T14:02:29.833Z,997.67
2022-07-31T14:03:28.741Z,997.70
2022-07-31T14:04:38.807Z,997.73
2022-07-31T14:05:28.532Z,997.73
2022-07-31T14:06:28.627Z,997.69
2022-07-31T14:07:45.445Z,997.65
2022-07-31T14:08:49.994Z,997.61
2022-07-31T14:09:29.542Z,997.63
2022-07-31T14:10:28.713Z,997.57
2022-07-31T14:11:28.493Z,997.62
2022-07-31T14:12:28.690Z,997.61
2022-07-31T14:13:28.688Z,997.61
2022-07-31T14:14:28.882Z,997.53
2022-07-31T14:15:30.679Z,997.60
2022-07-31T14:16:28.470Z,997.58
2022-07-31T14:17:28.459Z,997.54
2022-07-31T14:18:28.660Z,997.52
2022-07-31T14:21:08.300Z,997.67
2022-07-31T14:22:02.264Z,997.62
2022-07-31T14:23:08.284Z,997.71
2022-07-31T14:24:02.261Z,997.69
2022-07-31T14:25:02.255Z,997.73
2022-07-31T14:26:02.439Z,997.66
2022-07-31T14:27:48.941Z,997.70
2022-07-31T14:28:48.920Z,997.76
2022-07-31T14:29:48.915Z,997.72
2022-07-31T14:30:49.653Z,997.68
2022-07-31T14:31:48.904Z,997.73
2022-07-31T14:33:51.838Z,997.79
2022-07-31T14:35:02.382Z,997.73
2022-07-31T14:35:54.644Z,997.78
2022-07-31T14:36:51.805Z,997.74
2022-07-31T14:37:51.796Z,997.83
2022-07-31T14:38:51.789Z,997.81
2022-07-31T14:39:51.789Z,997.79
2022-07-31T14:41:42.545Z,997.76
2022-07-31T14:42:44.534Z,997.76
2022-07-31T14:43:42.519Z,997.75
2022-07-31T14:44:42.665Z,997.76
2022-07-31T14:45:51.939Z,997.75
2022-07-31T14:46:43.536Z,997.77
2022-07-31T14:47:42.492Z,997.77
2022-07-31T14:48:42.483Z,997.79
2022-07-31T14:50:07.265Z,997.79
2022-07-31T14:50:43.711Z,997.80
2022-07-31T14:52:25.217Z,997.79
2022-07-31T14:53:31.408Z,997.83
2022-07-31T14:54:31.198Z,997.81
2022-07-31T14:55:25.182Z,997.88
2022-07-31T14:56:45.483Z,997.84
2022-07-31T14:57:32.219Z,997.93
2022-07-31T14:58:25.167Z,998.00
2022-07-31T14:59:25.362Z,997.97
2022-07-31T15:00:25.149Z,997.98
2022-07-31T15:01:25.242Z,997.97
2022-07-31T15:02:25.138Z,998.01
2022-07-31T15:03:25.128Z,998.07
2022-07-31T15:04:31.534Z,998.01
2022-07-31T15:06:39.767Z,998.04
2022-07-31T15:06:53.672Z,998.06
2022-07-31T15:07:35.319Z,998.06
2022-07-31T15:08:26.127Z,998.06
2022-07-31T15:09:25.085Z,998.04
2022-07-31T15:10:25.088Z,998.02
2022-07-31T15:11:48.537Z,998.03
2022-07-31T15:12:26.305Z,997.99
2022-07-31T15:13:25.475Z,997.99
2022-07-31T15:14:25.055Z,998.04
2022-07-31T15:15:25.044Z,998.04
2022-07-31T15:16:25.034Z,998.05
2022-07-31T15:17:25.028Z,998.12
2022-07-31T15:18:25.731Z,998.10
2022-07-31T15:19:25.008Z,998.05
2022-07-31T15:20:32.817Z,997.98
2022-07-31T15:21:31.016Z,998.11
2022-07-31T15:22:24.982Z,998.11
2022-07-31T15:23:25.024Z,998.08
2022-07-31T15:24:26.972Z,998.08
2022-07-31T15:25:25.162Z,998.08
2022-07-31T15:26:24.953Z,998.04
2022-07-31T15:27:25.165Z,998.07
2022-07-31T15:28:24.940Z,998.04
2022-07-31T15:29:24.930Z,998.11
2022-07-31T15:30:26.361Z,998.11
2022-07-31T15:31:24.921Z,998.07
2022-07-31T15:32:25.072Z,998.12
2022-07-31T15:33:30.908Z,998.13
2022-07-31T15:34:30.893Z,998.11
2022-07-31T15:35:24.879Z,998.06
2022-07-31T15:36:24.874Z,997.83
2022-07-31T15:37:24.871Z,997.81
2022-07-31T15:38:25.266Z,997.77
2022-07-31T15:39:24.863Z,997.77
2022-07-31T15:40:24.838Z,997.75
2022-07-31T15:41:30.844Z,997.77
2022-07-31T15:42:30.832Z,997.79
2022-07-31T15:43:24.815Z,997.81
2022-07-31T15:44:25.050Z,997.80